AirNav   SIMCOM
 
 1326 users online  

KRVN Hawkins County Airport
Rogersville, Tennessee, USA

GOING TO ROGERSVILLE?


FAA INFORMATION EFFECTIVE 09 NOVEMBER 2017

Location

FAA Identifier: RVN
Lat/Long: 36-27-27.3000N / 082-53-06.1000W
36-27.455000N / 082-53.101667W
36.4575833 / -82.8850278
(estimated)
Elevation: 1254.5 ft. / 382.4 m (surveyed)
Variation: 07W (2020)
From city: 6 miles NE of ROGERSVILLE, TN
Time zone: UTC -5 (UTC -4 during Daylight Saving Time)
Zip code: 37857

Airport Operations

Airport use: Open to the public
Activation date: 07/1965
Control tower: no
ARTCC: ATLANTA CENTER
FSS: NASHVILLE FLIGHT SERVICE STATION
NOTAMs facility: BNA (NOTAM-D service available)
Attendance: 0800-1700
Wind indicator: lighted
Segmented circle: yes
Beacon: white-green (lighted land airport)
Operates sunset to sunrise.

Airport Communications

CTAF/UNICOM: 122.8
TRI CITY APPROACH: 128.05
TRI CITY DEPARTURE: 128.05
WX AWOS-3 at GCY (16 nm S): 128.425 (423-639-5081)
WX AWOS-3 at 0VG (20 nm NW): 120.125 (276-346-3333)
  • APCH/DEP SERVICE PRVDD BY ATLANTA ARTCC ON FREQS 127.85/371.85 (GLADE SPRINGS RCAG) WHEN TRI CITY APCH CTL CLSD.

Nearby radio navigation aids

VOR radial/distance  VOR name  Freq  Var
HMVr276/36.5HOLSTON MOUNTAIN VORTAC114.6004W

 
NDB name  Hdg/Dist  Freq  Var  ID
ROGERSVILLEat field32907WRVN .-. ...- -.
DULANEY008/19.326307WDYQ -.. -.-- --.-
JEFFERSON058/35.334604WJXT .--- -..- -

Airport Services

Fuel available: 100LL
SELF SVC FUEL AVAILABLE 24 HRS.
Parking: hangars and tiedowns
Airframe service: MAJOR
Powerplant service: MAJOR
Bottled oxygen: NONE
Bulk oxygen: NONE

Runway Information

Runway 7/25

Dimensions: 3502 x 75 ft. / 1067 x 23 m
Surface: asphalt, in fair condition
RY 7/25 AND APRON, CRACKS WITH GRASS IN THEM.
Weight bearing capacity: 
Single wheel: 25.0
Runway edge lights: medium intensity
RUNWAY 7  RUNWAY 25
Latitude: 36-27.328465N36-27.580942N
Longitude: 082-53.423360W082-52.780897W
Elevation: 1254.4 ft.1229.7 ft.
Gradient: 0.7%0.7%
Traffic pattern: leftleft
Runway heading: 071 magnetic, 064 true251 magnetic, 244 true
Markings: basic, in fair conditionbasic, in fair condition
Visual slope indicator: 4-light PAPI on left4-light PAPI on left
Runway end identifier lights: yesyes
Touchdown point: yes, no lightsyes, no lights
Obstructions: 57 ft. trees, 274 ft. from runway, 137 ft. right of centerline, 1:1 slope to clear27 ft. trees, 279 ft. from runway, 143 ft. left of centerline, 2:1 slope to clear

Airport Ownership and Management from official FAA records

Ownership: Publicly-owned
Owner: HAWKINS COUNTY
150 WASHINGTON ST
ROGERSVILLE, TN 37857
Phone 423-272-7359
HAWKINS COUNTY COURTHOUSE 150 WASHINGTON ST ROGERSVILLE TN 37857
Manager: MARK FINLEY
675 MAIN ST
SURGOINSVILLE, TN 37873
Phone 423-345-0219

Airport Operational Statistics

Aircraft based on the field: 28
Single engine airplanes: 28
    
Aircraft operations: avg 30/day *
51% transient general aviation
48% local general aviation
1% air taxi
<1% military
* for 12-month period ending 31 August 2015

Additional Remarks

RY 07 MTN RIDGES SOUTHEAST OF APT; 3118' WITHIN 9 MILES.
DEER ON & INVOF ARPT.
CLOSED ALL MAJOR HOLIDAYS

Instrument Procedures

NOTE: All procedures below are presented as PDF files. If you need a reader for these files, you should download the free Adobe Reader.

NOT FOR NAVIGATION. Please procure official charts for flight.
FAA instrument procedures published for use between 9 November 2017 at 0901Z and 7 December 2017 at 0900Z.

 
IAPs - Instrument Approach Procedures
RNAV (GPS) RWY 07 **CHANGED**   download (199KB)
RNAV (GPS) RWY 25 **CHANGED**   download (206KB)
NDB RWY 07 **CHANGED**   download (190KB)
NOTE: Special Take-Off Minimums/Departure Procedures apply   download

Other nearby airports with instrument procedures:

KGCY - Greeneville-Greene County Municipal Airport (16 nm S)
0VG - Lee County Airport (20 nm NW)
KTRI - Tri-Cities Airport (23 nm E)
KMOR - Moore-Murrell Airport (29 nm SW)
3A2 - New Tazewell Municipal Airport (33 nm W)
 
Loc | Ops | Rwys | IFR | FBO | Links
Com | Nav | Svcs | Stats | Notes


 
Area around KRVN (Hawkins County Airport)
 
Road maps at: MapQuest Bing Google
 
Aerial photo
WARNING: Photo may not be current or correct
Aerial photo of KRVN (Hawkins County Airport)
Do you have a better or more recent aerial photo of Hawkins County Airport that you would like to share? If so, please send us your photo.

 
Sectional chart

 
Airport distance calculator
Flying to Hawkins County Airport? Find the distance to fly.

From to KRVN

Sunrise and sunset
Times for 22-Nov-2017
 Local
(UTC-5)
 Zulu
(UTC)
Morning civil twilight06:4911:49
Sunrise07:1712:17
Sunset17:1822:18
Evening civil twilight17:4622:46

Current date and time
Zulu (UTC)  22-Nov-2017 15:00:13
Local (UTC-5)  22-Nov-2017 10:00:13
 
METAR
K0VG 
20nm NW 
221430Z AUTO 31003KT 10SM CLR 07/01 A3021 RMK AO2
KTRI 
23nm E 
221453Z 34009KT 10SM SCT042 09/03 A3016 RMK AO2 SLP206 T00940028 51029
KMOR 
29nm SW 
221435Z AUTO VRB05KT 10SM CLR 08/02 A3018 RMK A01
KI35 
33nm NW 
221435Z AUTO 28004KT 10SM OVC014 03/00 A3020 RMK AO1
K0A9 
35nm E 
221435Z AUTO VRB04KT 10SM CLR 09/01 A3015 RMK A01
KLNP 
35nm NE 
221435Z AUTO 33010G15KT 10SM OVC008 02/02 A3016 RMK AO2
TAF
KTRI 
23nm E 
221120Z 2212/2312 31004KT P6SM SCT250 FM221600 32005KT P6SM SCT030 FM230000 00000KT P6SM SKC
NOTAMs
Click for the latest NOTAMs
NOTAMs are issued by the DoD/FAA and will open in a separate window not controlled by AirNav.

 

 
 

FBO, Fuel Providers, and Aircraft Ground Support

  
 Business Name 
 
 Contact 
 
 Services / Description 
 
Fuel Prices
 
Comments
  
Hawkins County Airport 423-345-0219
no information available

If you are affiliated with Hawkins County Airport and would like to show here your services, contact info, web link, logo, and more, click here
100LL
SS $4.20 
 Updated 11-Feb-2017
 
   write
SS=Self service
Update Fuel Prices
 

Would you like to see your business listed on this page?

 If your business provides an interesting product or service to pilots, flight crews, aircraft, or users of the Hawkins County Airport, you should consider listing it here.  To start the listing process, click on the button below
 
Add a business
 

Other Pages about Hawkins County Airport

Update a link
 
Copyright © AirNav, LLC. All rights reserved. Privacy Policy  Contact